Time;durP1;ratioP1;P1;durP2;ratioP2;P2;SDS_P1;SDS_P2;PMS_P1;PMS_P2;Temp;Humidity;BMP_temperature;BMP_pressure;BME280_temperature;BME280_humidity;BME280_pressure;Samples;Min_cycle;Max_cycle;Signal;HPM_P1;HPM_P2
2022/01/04 10:52:31;;;;;;;14.87;7.07;;;;;;;;;;4943093;28;20223;-68
2022/01/04 10:55:13;;;;;;;14.17;7.40;;;;;;;;;;4946590;29;20210;-66
2022/01/04 10:57:40;;;;;;;14.83;7.47;;;;;;;;;;5076401;23;20620;-67
2022/01/04 11:00:13;;;;;;;11.70;7.03;;;;;;;;;;5076308;22;20459;-72
2022/01/04 11:02:40;;;;;;;14.50;6.37;;;;;;;;;;4976480;28;20228;-69
2022/01/04 11:05:11;;;;;;;13.50;6.33;;;;;;;;;;4946690;28;25412;-69
2022/01/04 11:13:25;;;;;;;13.57;7.70;;;;;;;;;;4935050;28;20214;-68
2022/01/04 11:15:53;;;;;;;16.63;7.90;;;;;;;;;;4945551;29;20202;-68
2022/01/04 11:18:20;;;;;;;13.80;7.93;;;;;;;;;;4963488;28;21088;-69
2022/01/04 11:20:48;;;;;;;15.90;6.93;;;;;;;;;;4948554;28;20190;-69
2022/01/04 11:23:16;;;;;;;10.60;5.80;;;;;;;;;;4948392;28;20522;-68
2022/01/04 11:25:44;;;;;;;12.10;5.27;;;;;;;;;;4947221;28;20691;-69
2022/01/04 11:28:14;;;;;;;12.03;7.10;;;;;;;;;;4948196;28;20230;-68
2022/01/04 11:30:56;;;;;;;10.00;6.63;;;;;;;;;;4949241;28;20216;-68
2022/01/04 11:33:25;;;;;;;12.57;6.83;;;;;;;;;;4984711;28;20213;-68
2022/01/04 11:35:52;;;;;;;18.30;8.97;;;;;;;;;;4954329;28;20186;-67
2022/01/04 11:38:34;;;;;;;15.97;7.53;;;;;;;;;;4954760;28;20660;-67
2022/01/04 11:41:01;;;;;;;8.63;4.97;;;;;;;;;;4954791;28;20197;-67
2022/01/04 11:43:31;;;;;;;11.53;7.27;;;;;;;;;;4954635;28;20773;-68
2022/01/04 11:45:58;;;;;;;12.27;8.13;;;;;;;;;;4954651;28;20229;-67
2022/01/04 11:48:26;;;;;;;15.70;8.73;;;;;;;;;;4968999;28;20242;-67
2022/01/04 11:50:53;;;;;;;20.07;9.23;;;;;;;;;;4943356;28;20210;-69
2022/01/04 11:53:22;;;;;;;8.33;4.37;;;;;;;;;;4947722;28;20221;-67
2022/01/04 11:55:53;;;;;;;14.20;7.13;;;;;;;;;;4946471;28;20206;-70
2022/01/04 11:58:25;;;;;;;15.43;8.77;;;;;;;;;;4949057;28;20673;-69
2022/01/04 12:01:01;;;;;;;13.57;8.27;;;;;;;;;;4950978;28;20437;-68
2022/01/04 12:03:38;;;;;;;16.70;7.83;;;;;;;;;;4947894;28;20743;-68
2022/01/04 12:06:06;;;;;;;14.27;5.80;;;;;;;;;;4950787;28;20208;-67
2022/01/04 12:08:34;;;;;;;17.27;8.67;;;;;;;;;;4948144;28;20214;-67
2022/01/04 12:11:01;;;;;;;14.93;8.47;;;;;;;;;;4961185;28;20209;-68
2022/01/04 12:13:47;;;;;;;14.73;9.23;;;;;;;;;;4947943;28;20209;-67
2022/01/04 12:16:14;;;;;;;20.17;11.23;;;;;;;;;;4947628;28;20197;-68
2022/01/04 12:18:41;;;;;;;16.83;9.80;;;;;;;;;;4946521;28;20281;-66
2022/01/04 12:21:14;;;;;;;15.37;8.77;;;;;;;;;;4963253;28;20676;-68
2022/01/04 12:23:45;;;;;;;15.07;8.97;;;;;;;;;;4947693;28;20965;-68
2022/01/04 12:26:12;;;;;;;22.03;10.83;;;;;;;;;;4948189;28;20331;-67
2022/01/04 12:28:39;;;;;;;17.57;9.63;;;;;;;;;;4948394;28;20255;-67
2022/01/04 12:31:24;;;;;;;17.00;9.27;;;;;;;;;;4947898;28;20190;-68
2022/01/04 12:33:53;;;;;;;18.37;9.57;;;;;;;;;;4964745;28;20672;-66
2022/01/04 12:36:23;;;;;;;14.13;9.07;;;;;;;;;;4954084;28;20273;-67
2022/01/04 12:38:50;;;;;;;16.30;9.37;;;;;;;;;;4969039;28;20202;-69
2022/01/04 12:41:17;;;;;;;19.43;9.50;;;;;;;;;;4954306;28;20205;-69
2022/01/04 12:43:49;;;;;;;15.57;9.00;;;;;;;;;;4953114;29;20223;-68
2022/01/04 12:46:27;;;;;;;24.63;10.90;;;;;;;;;;4953014;29;20270;-69
2022/01/04 12:48:56;;;;;;;18.90;10.40;;;;;;;;;;4954067;28;20249;-69
2022/01/04 12:51:24;;;;;;;16.83;8.50;;;;;;;;;;4952874;29;20200;-69
2022/01/04 12:53:54;;;;;;;22.87;10.53;;;;;;;;;;4954112;28;20198;-69
2022/01/04 12:56:21;;;;;;;18.73;9.80;;;;;;;;;;4952852;29;20190;-69
2022/01/04 12:58:48;;;;;;;18.03;10.17;;;;;;;;;;4954055;28;20265;-69
2022/01/04 13:01:26;;;;;;;18.83;10.27;;;;;;;;;;4953944;28;20198;-70
2022/01/04 13:03:54;;;;;;;17.53;10.50;;;;;;;;;;4952899;29;20185;-70
2022/01/04 13:06:21;;;;;;;21.00;10.83;;;;;;;;;;4953990;28;20269;-70
2022/01/04 13:08:52;;;;;;;22.37;9.97;;;;;;;;;;4953933;28;20218;-69
2022/01/04 13:11:19;;;;;;;15.00;9.37;;;;;;;;;;4953980;28;20241;-70
2022/01/04 13:13:55;;;;;;;17.97;10.27;;;;;;;;;;4957853;28;20186;-70
2022/01/04 13:16:30;;;;;;;21.43;11.20;;;;;;;;;;4957152;28;20198;-70
2022/01/04 13:19:09;;;;;;;16.03;9.37;;;;;;;;;;4956221;29;20429;-70
2022/01/04 13:21:36;;;;;;;17.77;9.07;;;;;;;;;;4956839;28;20197;-70
2022/01/04 13:24:03;;;;;;;20.27;10.83;;;;;;;;;;4957216;28;20261;-70
2022/01/04 13:26:30;;;;;;;11.37;7.40;;;;;;;;;;4956143;28;20235;-70
2022/01/04 13:28:57;;;;;;;16.27;8.60;;;;;;;;;;4957225;28;20222;-70
2022/01/04 13:31:24;;;;;;;18.97;9.97;;;;;;;;;;4957217;28;20186;-67
2022/01/04 13:33:51;;;;;;;18.37;9.43;;;;;;;;;;4956937;28;20879;-70
2022/01/04 13:36:21;;;;;;;19.83;10.50;;;;;;;;;;4955527;29;20198;-69
2022/01/04 13:38:50;;;;;;;15.03;8.93;;;;;;;;;;4955336;29;20675;-67
2022/01/04 13:41:32;;;;;;;18.00;9.43;;;;;;;;;;4956282;28;20194;-67
2022/01/04 13:44:03;;;;;;;21.70;11.00;;;;;;;;;;4956283;28;20213;-67
2022/01/04 13:46:31;;;;;;;17.80;10.17;;;;;;;;;;4956257;28;20200;-68
2022/01/04 13:48:59;;;;;;;16.73;9.53;;;;;;;;;;4956805;28;20520;-67
2022/01/04 13:51:28;;;;;;;20.87;11.13;;;;;;;;;;4956002;28;20190;-67
2022/01/04 13:53:59;;;;;;;20.53;9.80;;;;;;;;;;4962065;28;20202;-67
2022/01/04 13:56:30;;;;;;;21.67;9.73;;;;;;;;;;4955778;28;20561;-67
2022/01/04 13:58:58;;;;;;;17.37;9.77;;;;;;;;;;4956110;28;20285;-67
2022/01/04 14:01:31;;;;;;;20.43;10.87;;;;;;;;;;4956556;28;20273;-66
2022/01/04 14:04:09;;;;;;;19.00;10.53;;;;;;;;;;4956593;28;20193;-67
2022/01/04 14:06:39;;;;;;;18.60;10.60;;;;;;;;;;4956545;28;20664;-67
2022/01/04 14:09:30;;;;;;;18.77;10.20;;;;;;;;;;4955209;29;20475;-67
2022/01/04 14:12:02;;;;;;;17.37;11.27;;;;;;;;;;4951436;28;20226;-67
2022/01/04 14:14:30;;;;;;;17.70;10.47;;;;;;;;;;4956196;28;20617;-67
2022/01/04 14:17:02;;;;;;;19.50;10.90;;;;;;;;;;4956451;28;20245;-66
2022/01/04 14:19:30;;;;;;;17.80;10.90;;;;;;;;;;4955058;29;20249;-66
2022/01/04 14:21:59;;;;;;;20.00;10.37;;;;;;;;;;4956267;28;20229;-66
2022/01/04 14:24:46;;;;;;;19.43;11.30;;;;;;;;;;4954164;28;20264;-66
2022/01/04 14:27:27;;;;;;;14.50;10.03;;;;;;;;;;4955519;28;20189;-68
2022/01/04 14:30:05;;;;;;;20.90;12.07;;;;;;;;;;4949007;28;20752;-68
2022/01/04 14:32:34;;;;;;;19.80;11.47;;;;;;;;;;4947559;29;20205;-67
2022/01/04 14:35:07;;;;;;;23.50;12.60;;;;;;;;;;4948201;28;20204;-68
2022/01/04 14:37:36;;;;;;;19.53;12.20;;;;;;;;;;4947566;29;20213;-68
2022/01/04 14:40:04;;;;;;;24.47;12.53;;;;;;;;;;4947963;29;20249;-68
2022/01/04 14:42:31;;;;;;;23.23;13.43;;;;;;;;;;4948952;28;20293;-68
2022/01/04 14:44:58;;;;;;;20.33;12.43;;;;;;;;;;4959653;28;20236;-68
2022/01/04 14:47:25;;;;;;;20.73;12.67;;;;;;;;;;4947794;29;20213;-67
2022/01/04 14:49:52;;;;;;;26.57;14.50;;;;;;;;;;4948833;28;20194;-67
2022/01/04 14:52:21;;;;;;;25.17;10.73;;;;;;;;;;4949034;28;20245;-66
2022/01/04 14:54:48;;;;;;;29.50;14.30;;;;;;;;;;4948972;28;21179;-68
2022/01/04 14:57:15;;;;;;;27.13;13.13;;;;;;;;;;4964158;28;21857;-67
2022/01/04 14:59:42;;;;;;;25.67;13.53;;;;;;;;;;4948822;28;20202;-67
2022/01/04 15:02:10;;;;;;;24.17;14.00;;;;;;;;;;4948894;28;20225;-67
2022/01/04 15:04:37;;;;;;;29.80;14.20;;;;;;;;;;4948885;28;20197;-68
2022/01/04 15:07:05;;;;;;;22.70;12.60;;;;;;;;;;4944537;28;20711;-68
2022/01/04 15:09:31;;;;;;;24.80;13.97;;;;;;;;;;4948956;28;20230;-68
2022/01/04 15:11:59;;;;;;;26.03;14.80;;;;;;;;;;4947015;28;20478;-67
2022/01/04 15:14:27;;;;;;;29.50;14.03;;;;;;;;;;4948490;28;20453;-68
2022/01/04 15:16:54;;;;;;;26.73;14.60;;;;;;;;;;4948552;28;20276;-66
2022/01/04 15:19:21;;;;;;;26.93;14.67;;;;;;;;;;4948939;28;20208;-67
2022/01/04 15:21:48;;;;;;;29.53;14.83;;;;;;;;;;4948252;28;20640;-67
2022/01/04 15:24:14;;;;;;;25.87;14.40;;;;;;;;;;4948193;28;20221;-68
2022/01/04 15:26:41;;;;;;;26.57;14.47;;;;;;;;;;4946790;29;20261;-67
2022/01/04 15:29:08;;;;;;;26.43;14.10;;;;;;;;;;4947380;28;20706;-68
2022/01/04 15:31:35;;;;;;;27.77;12.10;;;;;;;;;;4948259;28;20293;-68
2022/01/04 15:34:02;;;;;;;27.17;14.93;;;;;;;;;;4947390;28;20668;-68
2022/01/04 15:36:30;;;;;;;30.03;15.53;;;;;;;;;;4947945;29;20671;-67
2022/01/04 15:38:57;;;;;;;29.83;14.17;;;;;;;;;;4947905;28;20202;-65
2022/01/04 15:41:23;;;;;;;25.67;15.17;;;;;;;;;;4948195;28;20202;-67
2022/01/04 15:43:50;;;;;;;29.47;12.90;;;;;;;;;;4948463;28;20202;-67
2022/01/04 15:46:17;;;;;;;29.43;15.73;;;;;;;;;;4947947;28;20194;-67
2022/01/04 15:48:44;;;;;;;24.80;14.83;;;;;;;;;;4946735;28;20253;-67
2022/01/04 15:51:11;;;;;;;21.97;11.77;;;;;;;;;;4948196;28;20200;-66
2022/01/04 15:53:37;;;;;;;21.60;12.90;;;;;;;;;;4948923;28;20186;-66
2022/01/04 15:56:04;;;;;;;23.90;11.80;;;;;;;;;;4948322;28;20578;-66
2022/01/04 15:58:31;;;;;;;29.53;14.50;;;;;;;;;;4953385;28;20539;-66
2022/01/04 16:00:58;;;;;;;27.23;13.47;;;;;;;;;;4948306;28;20236;-69
2022/01/04 16:03:27;;;;;;;19.27;9.60;;;;;;;;;;4952214;28;20202;-66
2022/01/04 16:05:54;;;;;;;24.97;12.90;;;;;;;;;;4952900;28;20190;-66
2022/01/04 16:08:22;;;;;;;33.53;14.40;;;;;;;;;;4952845;28;20202;-66
2022/01/04 16:10:49;;;;;;;27.00;13.27;;;;;;;;;;4953466;28;20190;-66
2022/01/04 16:13:16;;;;;;;28.27;13.23;;;;;;;;;;4952659;28;20226;-68
2022/01/04 16:23:31;;;;;;;22.07;11.83;;;;;;;;;;4953258;28;20241;-67
2022/01/04 16:25:58;;;;;;;20.63;10.33;;;;;;;;;;4952101;29;20261;-67
2022/01/04 16:28:25;;;;;;;26.87;14.27;;;;;;;;;;4952956;28;20214;-68
2022/01/04 16:30:51;;;;;;;25.30;14.47;;;;;;;;;;4952494;28;20673;-66
2022/01/04 16:33:18;;;;;;;28.53;14.17;;;;;;;;;;4952580;28;20194;-67
2022/01/04 16:35:44;;;;;;;28.40;14.50;;;;;;;;;;4953017;28;20281;-67
2022/01/04 16:38:11;;;;;;;25.93;14.67;;;;;;;;;;4952035;28;20600;-67
2022/01/04 16:40:38;;;;;;;30.03;14.63;;;;;;;;;;4952014;28;20353;-67
2022/01/04 16:43:06;;;;;;;23.50;12.83;;;;;;;;;;4957810;28;20240;-68
2022/01/04 16:45:32;;;;;;;31.13;15.17;;;;;;;;;;4972834;28;20188;-68
2022/01/04 16:48:00;;;;;;;28.67;15.00;;;;;;;;;;4952041;28;20222;-68
2022/01/04 16:50:32;;;;;;;32.37;16.10;;;;;;;;;;4953269;28;20468;-68
2022/01/04 16:53:00;;;;;;;26.77;15.27;;;;;;;;;;4952970;28;20200;-68
2022/01/04 16:55:27;;;;;;;25.23;14.50;;;;;;;;;;4954370;28;20202;-67
2022/01/04 16:58:16;;;;;;;31.33;13.83;;;;;;;;;;4954015;28;20201;-67
2022/01/04 17:00:42;;;;;;;31.00;14.70;;;;;;;;;;4952724;28;20190;-67
2022/01/04 17:03:10;;;;;;;31.37;15.27;;;;;;;;;;4953456;28;20218;-67
2022/01/04 17:05:40;;;;;;;27.50;14.30;;;;;;;;;;4953978;28;20194;-67
2022/01/04 17:08:06;;;;;;;27.17;14.60;;;;;;;;;;4953031;28;20245;-67
2022/01/04 17:10:35;;;;;;;28.80;14.57;;;;;;;;;;4953930;28;20193;-67
2022/01/04 17:15:48;;;;;;;27.63;14.20;;;;;;;;;;4953757;28;20249;-68
2022/01/04 17:18:15;;;;;;;29.43;14.00;;;;;;;;;;4953160;28;20677;-68
2022/01/04 17:20:43;;;;;;;32.43;15.23;;;;;;;;;;4953355;28;20196;-68
2022/01/04 17:23:10;;;;;;;23.80;12.73;;;;;;;;;;4953424;28;20187;-68
2022/01/04 17:25:36;;;;;;;29.30;13.43;;;;;;;;;;4973380;28;20203;-68
2022/01/04 17:28:03;;;;;;;26.80;15.33;;;;;;;;;;4934760;29;20222;-68
2022/01/04 17:30:34;;;;;;;30.50;15.67;;;;;;;;;;4956160;28;20610;-68
2022/01/04 17:33:00;;;;;;;31.17;17.60;;;;;;;;;;4952547;28;20655;-68
2022/01/04 17:35:29;;;;;;;32.60;17.40;;;;;;;;;;4953154;28;20446;-68
2022/01/04 17:37:55;;;;;;;33.43;17.57;;;;;;;;;;4953290;29;20689;-68
2022/01/04 17:40:25;;;;;;;34.47;18.47;;;;;;;;;;4952844;28;20237;-67
2022/01/04 17:42:52;;;;;;;36.47;17.70;;;;;;;;;;4943138;28;20497;-68
2022/01/04 17:45:20;;;;;;;34.53;17.70;;;;;;;;;;4945624;28;20198;-68
2022/01/04 17:47:47;;;;;;;37.77;16.87;;;;;;;;;;4946298;28;20505;-67
2022/01/04 17:50:19;;;;;;;38.67;18.97;;;;;;;;;;4945111;29;20951;-68
2022/01/04 17:52:46;;;;;;;34.90;18.07;;;;;;;;;;4946875;28;20249;-68
2022/01/04 17:55:13;;;;;;;35.37;16.67;;;;;;;;;;4946076;28;20536;-68
2022/01/04 17:57:40;;;;;;;36.90;17.97;;;;;;;;;;4961751;28;20288;-68
2022/01/04 18:00:07;;;;;;;31.67;17.50;;;;;;;;;;4948449;29;20194;-69
2022/01/04 18:02:34;;;;;;;31.97;18.03;;;;;;;;;;4954623;28;20222;-67
2022/01/04 18:05:03;;;;;;;32.17;16.27;;;;;;;;;;4954919;29;20194;-66
2022/01/04 18:07:29;;;;;;;36.53;19.43;;;;;;;;;;4955529;28;20194;-67
2022/01/04 18:09:56;;;;;;;31.60;15.30;;;;;;;;;;4955654;28;20230;-67
2022/01/04 18:12:23;;;;;;;30.70;17.40;;;;;;;;;;4955541;28;20226;-66
2022/01/04 18:14:50;;;;;;;33.50;18.40;;;;;;;;;;4955747;28;20193;-67
2022/01/04 18:17:16;;;;;;;32.80;18.53;;;;;;;;;;4969389;28;20204;-67
2022/01/04 18:19:47;;;;;;;32.60;17.70;;;;;;;;;;4974711;28;20197;-67
2022/01/04 18:22:14;;;;;;;34.90;17.33;;;;;;;;;;4955691;28;20194;-67
2022/01/04 18:24:40;;;;;;;38.93;17.17;;;;;;;;;;4956123;28;20203;-67
2022/01/04 18:27:07;;;;;;;35.57;17.20;;;;;;;;;;4956055;28;20265;-67
2022/01/04 18:29:34;;;;;;;30.73;16.43;;;;;;;;;;4956053;28;20621;-67
2022/01/04 18:32:02;;;;;;;33.37;15.77;;;;;;;;;;4957382;28;20241;-67
2022/01/04 18:34:28;;;;;;;28.97;14.43;;;;;;;;;;4966627;28;20194;-67
2022/01/04 18:36:55;;;;;;;28.90;14.33;;;;;;;;;;4947682;28;20195;-68
2022/01/04 18:39:22;;;;;;;30.17;14.83;;;;;;;;;;4944747;28;20206;-68
2022/01/04 18:41:49;;;;;;;26.87;13.57;;;;;;;;;;4947680;28;20187;-68
2022/01/04 18:44:16;;;;;;;26.70;14.17;;;;;;;;;;4948585;28;20194;-68
2022/01/04 18:46:42;;;;;;;29.80;14.27;;;;;;;;;;4948570;28;20198;-68
2022/01/04 18:49:09;;;;;;;28.70;14.90;;;;;;;;;;4949779;28;20249;-68
2022/01/04 18:51:37;;;;;;;29.17;16.00;;;;;;;;;;4963793;28;20948;-68
2022/01/04 18:54:03;;;;;;;31.07;16.40;;;;;;;;;;4949375;28;20197;-68
2022/01/04 18:56:32;;;;;;;25.87;13.83;;;;;;;;;;4947943;29;20210;-68
2022/01/04 18:59:02;;;;;;;26.13;14.07;;;;;;;;;;4948277;29;20213;-68
2022/01/04 19:01:31;;;;;;;30.60;15.43;;;;;;;;;;4949256;28;21027;-67
2022/01/04 19:04:01;;;;;;;27.90;15.53;;;;;;;;;;4948073;28;20206;-67
2022/01/04 19:06:32;;;;;;;25.40;14.10;;;;;;;;;;4955318;28;20573;-67
2022/01/04 19:08:59;;;;;;;25.40;14.60;;;;;;;;;;4945514;28;20865;-67
2022/01/04 19:11:28;;;;;;;22.87;13.73;;;;;;;;;;4952812;28;20488;-67
2022/01/04 19:13:58;;;;;;;23.07;13.23;;;;;;;;;;4953834;28;20202;-67
2022/01/04 19:16:30;;;;;;;23.17;14.10;;;;;;;;;;4954858;28;20495;-67
2022/01/04 19:18:57;;;;;;;26.47;13.83;;;;;;;;;;4954708;28;20218;-67
2022/01/04 19:21:23;;;;;;;25.07;12.40;;;;;;;;;;4944324;28;20213;-67
2022/01/04 19:23:50;;;;;;;26.40;11.17;;;;;;;;;;4948835;28;20585;-68
2022/01/04 19:26:17;;;;;;;22.63;12.60;;;;;;;;;;4947849;28;20889;-68
2022/01/04 19:28:44;;;;;;;21.73;12.03;;;;;;;;;;4947620;28;20446;-68
2022/01/04 19:31:11;;;;;;;19.57;10.77;;;;;;;;;;4946596;29;20226;-69
2022/01/04 19:36:14;;;;;;;18.87;11.03;;;;;;;;;;4948091;28;20210;-68
2022/01/04 19:38:42;;;;;;;17.73;9.50;;;;;;;;;;4947864;28;20202;-69
2022/01/04 19:41:10;;;;;;;18.00;10.50;;;;;;;;;;4948748;28;20230;-69
2022/01/04 19:43:37;;;;;;;17.47;9.87;;;;;;;;;;4948497;28;20198;-68
2022/01/04 19:46:08;;;;;;;13.73;6.60;;;;;;;;;;4948551;28;20554;-68
2022/01/04 19:48:35;;;;;;;18.30;9.90;;;;;;;;;;4963421;28;20233;-68
2022/01/04 19:51:02;;;;;;;16.37;9.37;;;;;;;;;;4947982;28;20226;-66
2022/01/04 19:53:29;;;;;;;20.47;10.43;;;;;;;;;;4953380;28;21175;-66
2022/01/04 19:55:56;;;;;;;20.33;10.63;;;;;;;;;;4953362;28;20201;-67
2022/01/04 19:58:23;;;;;;;16.17;8.80;;;;;;;;;;4953818;28;20617;-67
2022/01/04 20:00:50;;;;;;;17.57;9.70;;;;;;;;;;4952745;29;20186;-67
2022/01/04 20:03:17;;;;;;;19.57;9.90;;;;;;;;;;4954240;28;20201;-67
2022/01/04 20:05:45;;;;;;;19.33;9.47;;;;;;;;;;4954024;28;20217;-67
2022/01/04 20:08:13;;;;;;;17.13;8.83;;;;;;;;;;4953152;28;20237;-67
2022/01/04 20:10:41;;;;;;;19.23;10.00;;;;;;;;;;4953951;28;20871;-67
2022/01/04 20:13:07;;;;;;;18.40;9.93;;;;;;;;;;4953145;28;20252;-67
2022/01/04 20:15:36;;;;;;;16.80;9.50;;;;;;;;;;4953676;28;20277;-67
2022/01/04 20:18:04;;;;;;;16.30;9.90;;;;;;;;;;4950107;29;20605;-68
2022/01/04 20:20:31;;;;;;;17.50;10.00;;;;;;;;;;4953509;28;20204;-68
2022/01/04 20:22:57;;;;;;;19.53;9.60;;;;;;;;;;4953913;28;20178;-69
2022/01/04 20:25:24;;;;;;;17.00;8.77;;;;;;;;;;4954164;28;20293;-69
2022/01/04 20:27:51;;;;;;;16.77;9.97;;;;;;;;;;4954405;28;20457;-69
2022/01/04 20:30:18;;;;;;;16.03;8.87;;;;;;;;;;4952518;29;20644;-68
2022/01/04 20:32:45;;;;;;;19.77;10.57;;;;;;;;;;4954458;28;20214;-68
2022/01/04 20:35:28;;;;;;;17.17;10.03;;;;;;;;;;4946565;28;20558;-68
2022/01/04 20:37:57;;;;;;;17.10;8.77;;;;;;;;;;4935079;29;20195;-68
2022/01/04 20:40:25;;;;;;;14.40;7.87;;;;;;;;;;4942083;29;20186;-68
2022/01/04 20:42:52;;;;;;;15.30;8.63;;;;;;;;;;4949047;29;20238;-69
2022/01/04 20:45:20;;;;;;;15.97;7.83;;;;;;;;;;4970714;28;20194;-69
2022/01/04 20:47:50;;;;;;;14.87;7.70;;;;;;;;;;4985962;28;20279;-69
2022/01/04 20:50:18;;;;;;;17.77;9.90;;;;;;;;;;4953137;28;20206;-69
2022/01/04 20:52:46;;;;;;;16.40;9.03;;;;;;;;;;4934627;29;20207;-69
2022/01/04 20:55:14;;;;;;;14.27;8.70;;;;;;;;;;4933994;29;20254;-68
2022/01/04 20:57:44;;;;;;;13.10;6.77;;;;;;;;;;4934045;29;20577;-69
2022/01/04 21:00:13;;;;;;;15.10;8.70;;;;;;;;;;4932925;29;20237;-68
2022/01/04 21:02:41;;;;;;;14.07;9.00;;;;;;;;;;4933988;29;20677;-68
2022/01/04 21:05:09;;;;;;;14.70;8.33;;;;;;;;;;4933942;29;20198;-68
2022/01/04 21:07:35;;;;;;;14.40;7.50;;;;;;;;;;4950547;29;20288;-69
2022/01/04 21:10:05;;;;;;;14.57;8.33;;;;;;;;;;4952877;28;20473;-68
2022/01/04 21:12:33;;;;;;;16.53;8.60;;;;;;;;;;4952889;28;20645;-68
2022/01/04 21:14:59;;;;;;;12.00;6.80;;;;;;;;;;4953074;28;20233;-68
2022/01/04 21:17:26;;;;;;;12.63;8.20;;;;;;;;;;4952887;28;20186;-68
2022/01/04 21:19:53;;;;;;;12.87;7.70;;;;;;;;;;4967781;28;20252;-68
2022/01/04 21:22:20;;;;;;;12.73;7.33;;;;;;;;;;4950934;28;20198;-68
2022/01/04 21:24:47;;;;;;;11.13;6.97;;;;;;;;;;4952927;28;20202;-68
2022/01/04 21:27:18;;;;;;;10.90;6.70;;;;;;;;;;4953010;28;20198;-69
2022/01/04 21:29:44;;;;;;;13.43;8.10;;;;;;;;;;4952961;28;20225;-68
2022/01/04 21:32:11;;;;;;;12.53;7.67;;;;;;;;;;4952769;28;20190;-68
2022/01/04 21:34:38;;;;;;;12.90;7.73;;;;;;;;;;4956721;28;20206;-68
2022/01/04 21:37:06;;;;;;;12.63;7.80;;;;;;;;;;4956571;28;20190;-68
2022/01/04 21:39:33;;;;;;;13.30;7.23;;;;;;;;;;4955768;28;20186;-69
2022/01/04 21:42:01;;;;;;;9.97;7.43;;;;;;;;;;4956428;28;20197;-67
2022/01/04 21:44:30;;;;;;;12.93;7.57;;;;;;;;;;4956335;28;20186;-68
2022/01/04 21:46:58;;;;;;;12.40;7.57;;;;;;;;;;4956429;28;20198;-68
2022/01/04 21:49:25;;;;;;;9.40;6.20;;;;;;;;;;4956321;28;20194;-68
2022/01/04 21:51:52;;;;;;;13.80;7.57;;;;;;;;;;4956326;28;20190;-68
2022/01/04 21:54:18;;;;;;;12.27;7.57;;;;;;;;;;4956361;28;20620;-69
2022/01/04 21:56:45;;;;;;;10.60;5.90;;;;;;;;;;4951087;28;21174;-69
2022/01/04 21:59:12;;;;;;;7.00;4.70;;;;;;;;;;4967367;28;20963;-68
2022/01/04 22:01:38;;;;;;;7.07;3.90;;;;;;;;;;4937039;29;20246;-69
2022/01/04 22:04:05;;;;;;;5.33;4.00;;;;;;;;;;4937037;29;20254;-69
2022/01/04 22:06:33;;;;;;;3.83;2.90;;;;;;;;;;4936824;29;20194;-68
2022/01/04 22:09:01;;;;;;;4.00;2.27;;;;;;;;;;4936837;29;20225;-69
2022/01/04 22:11:28;;;;;;;3.90;2.10;;;;;;;;;;4936583;29;20317;-68
2022/01/04 22:13:56;;;;;;;3.80;2.10;;;;;;;;;;4936696;29;20561;-69
2022/01/04 22:16:22;;;;;;;2.43;1.33;;;;;;;;;;4936721;29;20195;-68
2022/01/04 22:18:49;;;;;;;1.77;1.10;;;;;;;;;;4936753;29;20195;-69
2022/01/04 22:21:36;;;;;;;1.70;0.67;;;;;;;;;;4936223;29;20225;-68
2022/01/04 22:24:03;;;;;;;2.53;0.67;;;;;;;;;;4936348;29;20233;-68
2022/01/04 22:26:29;;;;;;;2.53;0.67;;;;;;;;;;4936555;29;20182;-68
2022/01/04 22:28:56;;;;;;;1.90;0.70;;;;;;;;;;4936546;29;21221;-68
2022/01/04 22:31:23;;;;;;;1.20;0.50;;;;;;;;;;4945590;29;20237;-68
2022/01/04 22:33:50;;;;;;;2.13;0.70;;;;;;;;;;4954533;29;20204;-68
2022/01/04 22:36:18;;;;;;;3.50;0.90;;;;;;;;;;4955513;28;20461;-68
2022/01/04 22:38:44;;;;;;;1.37;0.80;;;;;;;;;;4955402;28;20534;-68
2022/01/04 22:41:11;;;;;;;2.60;0.97;;;;;;;;;;4954361;29;20461;-68
2022/01/04 22:43:38;;;;;;;0.63;0.60;;;;;;;;;;4955154;28;20469;-68
2022/01/04 22:46:05;;;;;;;1.93;1.17;;;;;;;;;;4954533;28;20455;-68
2022/01/04 22:48:32;;;;;;;1.00;0.70;;;;;;;;;;4954622;28;20446;-68
2022/01/04 22:50:59;;;;;;;1.03;0.40;;;;;;;;;;4955315;28;20477;-68
2022/01/04 22:53:25;;;;;;;0.77;0.47;;;;;;;;;;4955082;28;20433;-68
2022/01/04 22:55:52;;;;;;;2.40;0.53;;;;;;;;;;4955367;28;20492;-68
2022/01/04 22:58:21;;;;;;;1.47;0.63;;;;;;;;;;4955185;28;20622;-68
2022/01/04 23:00:47;;;;;;;1.70;0.60;;;;;;;;;;4953890;29;20434;-68
2022/01/04 23:03:14;;;;;;;1.27;0.70;;;;;;;;;;4953803;29;20432;-68
2022/01/04 23:05:41;;;;;;;1.33;0.90;;;;;;;;;;4954123;28;21026;-68
2022/01/04 23:08:08;;;;;;;1.17;0.83;;;;;;;;;;4955086;28;20821;-68
2022/01/04 23:10:35;;;;;;;2.30;1.10;;;;;;;;;;4954645;28;20580;-68
2022/01/04 23:13:01;;;;;;;2.03;1.10;;;;;;;;;;4954538;28;20477;-68
2022/01/04 23:15:28;;;;;;;0.90;0.60;;;;;;;;;;4954877;28;20433;-68
2022/01/04 23:17:54;;;;;;;1.40;0.70;;;;;;;;;;4985837;28;20445;-68
2022/01/04 23:20:21;;;;;;;0.83;0.53;;;;;;;;;;4954558;28;20233;-68
2022/01/04 23:22:49;;;;;;;0.33;0.30;;;;;;;;;;4953925;28;20449;-68
2022/01/04 23:25:16;;;;;;;2.37;0.77;;;;;;;;;;4954720;28;20441;-68
2022/01/04 23:27:42;;;;;;;0.73;0.30;;;;;;;;;;4954739;28;20441;-68
2022/01/04 23:30:12;;;;;;;0.50;0.40;;;;;;;;;;4954494;28;20469;-68
2022/01/04 23:32:38;;;;;;;1.60;0.50;;;;;;;;;;4954516;28;20493;-68
2022/01/04 23:35:05;;;;;;;2.03;0.70;;;;;;;;;;4953165;28;20449;-68
2022/01/04 23:37:32;;;;;;;1.63;0.50;;;;;;;;;;4954254;28;20493;-68
2022/01/04 23:39:59;;;;;;;1.20;0.57;;;;;;;;;;4953777;29;20456;-68
2022/01/04 23:42:25;;;;;;;0.77;0.47;;;;;;;;;;4954257;28;20492;-68
2022/01/04 23:44:52;;;;;;;0.63;0.47;;;;;;;;;;4954227;28;20443;-68
2022/01/04 23:47:18;;;;;;;0.60;0.43;;;;;;;;;;4954020;28;20941;-68
2022/01/04 23:49:45;;;;;;;2.07;0.70;;;;;;;;;;4954238;28;21031;-68
2022/01/04 23:52:12;;;;;;;2.40;0.60;;;;;;;;;;4954137;28;20433;-68
2022/01/04 23:54:38;;;;;;;0.60;0.37;;;;;;;;;;4953064;28;20468;-68
2022/01/04 23:57:05;;;;;;;2.70;0.77;;;;;;;;;;4953752;28;20438;-67
2022/01/04 23:59:32;;;;;;;2.43;0.60;;;;;;;;;;4953963;28;20444;-68
